Time;durP1;ratioP1;P1;durP2;ratioP2;P2;SDS_P1;SDS_P2;PMS_P1;PMS_P2;Temp;Humidity;BMP_temperature;BMP_pressure;BME280_temperature;BME280_humidity;BME280_pressure;Samples;Min_cycle;Max_cycle;Signal;HPM_P1;HPM_P2
2022/05/28 00:02:02;;;;;;;;;;;11.60;68.70;;;;;;4987186;28;19926;-84
2022/05/28 00:04:28;;;;;;;;;;;11.70;69.10;;;;;;4995345;28;19914;-84
2022/05/28 00:06:53;;;;;;;;;;;11.60;68.80;;;;;;4999931;28;20392;-84
2022/05/28 00:09:18;;;;;;;;;;;11.70;69.20;;;;;;4982597;28;19914;-83
2022/05/28 00:11:44;;;;;;;;;;;11.70;69.20;;;;;;4980607;28;19924;-84
2022/05/28 00:14:10;;;;;;;;;;;11.60;69.10;;;;;;4981322;28;20009;-84
2022/05/28 00:16:36;;;;;;;;;;;11.60;69.10;;;;;;4997887;28;19917;-84
2022/05/28 00:19:02;;;;;;;;;;;11.60;68.90;;;;;;4995864;28;20126;-84
2022/05/28 00:21:27;;;;;;;;;;;11.60;69.40;;;;;;4997811;28;19964;-84
2022/05/28 00:23:53;;;;;;;;;;;11.60;69.30;;;;;;4979757;28;19926;-84
2022/05/28 00:26:18;;;;;;;;;;;11.50;69.80;;;;;;5011966;28;19909;-84
2022/05/28 00:28:44;;;;;;;;;;;11.60;69.40;;;;;;5010833;28;20001;-84
2022/05/28 00:31:09;;;;;;;;;;;11.60;69.50;;;;;;4999496;28;19917;-84
2022/05/28 00:33:35;;;;;;;;;;;11.60;69.80;;;;;;4999631;28;20052;-83
2022/05/28 00:36:01;;;;;;;;;;;11.50;69.80;;;;;;4999141;28;19914;-83
2022/05/28 00:38:27;;;;;;;;;;;11.50;70.40;;;;;;4993547;28;19920;-84
2022/05/28 00:40:54;;;;;;;;;;;11.50;69.80;;;;;;4993298;28;19917;-83
2022/05/28 00:43:20;;;;;;;;;;;11.50;69.90;;;;;;5003306;28;19980;-83
2022/05/28 00:45:47;;;;;;;;;;;11.40;70.30;;;;;;4996153;28;19914;-83
2022/05/28 00:48:13;;;;;;;;;;;11.50;70.30;;;;;;4996385;28;19917;-82
2022/05/28 00:50:39;;;;;;;;;;;11.50;70.30;;;;;;4994953;28;19940;-83
2022/05/28 00:53:05;;;;;;;;;;;11.40;70.20;;;;;;4979046;28;19914;-83
2022/05/28 00:55:33;;;;;;;;;;;11.40;70.30;;;;;;5001512;28;19925;-83
2022/05/28 00:57:59;;;;;;;;;;;11.30;70.80;;;;;;4975516;28;19953;-83
2022/05/28 01:00:25;;;;;;;;;;;11.40;71.30;;;;;;4975065;28;19922;-83
2022/05/28 01:02:50;;;;;;;;;;;11.50;70.10;;;;;;4980717;28;19925;-83
2022/05/28 01:05:20;;;;;;;;;;;11.50;70.00;;;;;;4991378;28;19945;-83
2022/05/28 01:08:04;;;;;;;;;;;11.60;69.60;;;;;;4991234;28;20258;-83
2022/05/28 01:10:33;;;;;;;;;;;11.60;69.50;;;;;;4985781;28;19924;-83
2022/05/28 01:13:22;;;;;;;;;;;11.50;69.90;;;;;;4993575;28;19968;-83
2022/05/28 01:15:52;;;;;;;;;;;11.50;69.90;;;;;;4990506;28;20055;-83
2022/05/28 01:18:21;;;;;;;;;;;11.50;70.20;;;;;;4991101;28;20023;-83
2022/05/28 01:20:51;;;;;;;;;;;11.40;70.60;;;;;;4986974;28;19924;-83
2022/05/28 01:23:22;;;;;;;;;;;11.40;70.80;;;;;;4970554;28;20388;-82
2022/05/28 01:25:51;;;;;;;;;;;11.30;71.30;;;;;;4993105;28;19921;-83
2022/05/28 01:28:21;;;;;;;;;;;11.20;71.10;;;;;;4991816;28;19914;-84
2022/05/28 01:30:47;;;;;;;;;;;11.20;70.60;;;;;;4990422;28;19995;-84
2022/05/28 01:33:13;;;;;;;;;;;11.30;70.60;;;;;;4974482;28;20404;-84
2022/05/28 01:35:39;;;;;;;;;;;11.30;71.00;;;;;;4970675;28;19932;-83
2022/05/28 01:38:05;;;;;;;;;;;11.30;71.40;;;;;;4991709;28;19914;-83
2022/05/28 01:40:32;;;;;;;;;;;11.30;71.40;;;;;;4971795;28;20082;-83
2022/05/28 01:43:00;;;;;;;;;;;11.20;71.20;;;;;;4990214;28;20238;-83
2022/05/28 01:45:27;;;;;;;;;;;11.20;71.20;;;;;;4989072;28;19918;-83
2022/05/28 01:47:54;;;;;;;;;;;11.20;71.40;;;;;;4989706;28;19921;-83
2022/05/28 01:50:22;;;;;;;;;;;11.20;71.50;;;;;;4989256;28;20296;-83
2022/05/28 01:52:48;;;;;;;;;;;11.20;71.70;;;;;;4989859;28;19921;-83
2022/05/28 01:55:15;;;;;;;;;;;11.20;72.90;;;;;;4996750;28;19920;-83
2022/05/28 01:57:40;;;;;;;;;;;11.20;71.70;;;;;;4973833;28;19988;-83
2022/05/28 02:00:06;;;;;;;;;;;11.10;72.00;;;;;;4997981;28;20324;-83
2022/05/28 02:02:32;;;;;;;;;;;11.10;72.50;;;;;;4983914;28;19918;-84
2022/05/28 02:04:57;;;;;;;;;;;11.10;72.80;;;;;;4993662;28;19918;-83
2022/05/28 02:07:22;;;;;;;;;;;11.10;72.30;;;;;;4998565;28;19929;-83
2022/05/28 02:09:52;;;;;;;;;;;11.10;72.70;;;;;;4995184;28;19926;-83
2022/05/28 02:12:18;;;;;;;;;;;11.10;72.60;;;;;;4997565;28;19984;-85
2022/05/28 02:15:02;;;;;;;;;;;11.00;72.80;;;;;;4996797;28;19989;-84
2022/05/28 02:17:46;;;;;;;;;;;11.00;72.80;;;;;;4993231;28;19917;-83
2022/05/28 02:20:12;;;;;;;;;;;11.00;73.20;;;;;;4992995;28;19981;-84
2022/05/28 02:22:37;;;;;;;;;;;11.10;72.10;;;;;;4994351;28;19922;-84
2022/05/28 02:25:09;;;;;;;;;;;11.00;72.70;;;;;;4993760;28;20297;-84
2022/05/28 02:27:36;;;;;;;;;;;11.00;72.90;;;;;;4978803;28;20307;-84
2022/05/28 02:30:01;;;;;;;;;;;11.00;73.10;;;;;;4995499;28;19932;-84
2022/05/28 02:32:27;;;;;;;;;;;10.90;73.40;;;;;;5002727;28;20529;-84
2022/05/28 02:34:52;;;;;;;;;;;10.90;73.40;;;;;;5002014;28;19913;-84
2022/05/28 02:37:22;;;;;;;;;;;11.00;73.60;;;;;;4980431;28;19925;-84
2022/05/28 02:39:48;;;;;;;;;;;11.00;73.70;;;;;;4992094;28;19957;-84
2022/05/28 02:42:13;;;;;;;;;;;11.00;73.30;;;;;;5007306;28;19929;-84
2022/05/28 02:44:39;;;;;;;;;;;11.10;73.30;;;;;;4996776;28;19924;-84
2022/05/28 02:47:05;;;;;;;;;;;11.10;73.20;;;;;;5010307;28;19957;-84
2022/05/28 02:49:31;;;;;;;;;;;11.10;73.00;;;;;;5010983;28;20383;-84
2022/05/28 02:51:59;;;;;;;;;;;11.20;72.80;;;;;;4981459;28;20021;-84
2022/05/28 02:54:24;;;;;;;;;;;11.20;72.70;;;;;;4996447;28;19910;-84
2022/05/28 02:56:50;;;;;;;;;;;11.20;73.20;;;;;;4980905;28;19980;-84
2022/05/28 02:59:15;;;;;;;;;;;11.30;72.90;;;;;;4977326;28;19914;-83
2022/05/28 03:01:40;;;;;;;;;;;11.20;73.40;;;;;;5004330;28;19929;-83
2022/05/28 03:04:06;;;;;;;;;;;11.30;73.30;;;;;;5014124;28;19936;-84
2022/05/28 03:06:32;;;;;;;;;;;11.30;73.30;;;;;;5010861;28;19937;-84
2022/05/28 03:08:58;;;;;;;;;;;11.30;73.10;;;;;;4978833;28;19925;-84
2022/05/28 03:11:23;;;;;;;;;;;11.30;72.90;;;;;;4995406;28;20064;-84
2022/05/28 03:13:49;;;;;;;;;;;11.50;72.70;;;;;;5007934;28;19949;-84
2022/05/28 03:16:15;;;;;;;;;;;11.50;72.90;;;;;;4985054;28;19913;-84
2022/05/28 03:18:40;;;;;;;;;;;11.60;72.30;;;;;;4998100;28;19917;-83
2022/05/28 03:21:06;;;;;;;;;;;11.60;72.40;;;;;;4995630;28;20340;-84
2022/05/28 03:23:32;;;;;;;;;;;11.60;72.60;;;;;;4997914;28;19937;-84
2022/05/28 03:25:57;;;;;;;;;;;11.70;72.20;;;;;;4978360;28;20033;-83
2022/05/28 03:28:23;;;;;;;;;;;11.70;72.00;;;;;;4976849;28;19941;-83
2022/05/28 03:30:48;;;;;;;;;;;11.60;72.30;;;;;;4970315;28;20005;-83
2022/05/28 03:33:14;;;;;;;;;;;11.70;72.50;;;;;;4971542;28;19918;-83
2022/05/28 03:35:40;;;;;;;;;;;11.70;72.30;;;;;;4987048;28;19918;-84
2022/05/28 03:38:05;;;;;;;;;;;11.60;73.20;;;;;;4991217;28;19994;-83
2022/05/28 03:40:31;;;;;;;;;;;11.60;73.60;;;;;;4991243;28;19922;-83
2022/05/28 03:42:56;;;;;;;;;;;11.50;73.30;;;;;;5002417;28;19918;-84
2022/05/28 03:45:24;;;;;;;;;;;11.50;73.30;;;;;;4998045;28;19996;-83
2022/05/28 03:47:49;;;;;;;;;;;11.50;73.20;;;;;;4992932;28;19956;-83
2022/05/28 03:50:15;;;;;;;;;;;11.40;73.80;;;;;;4996421;28;19914;-83
2022/05/28 03:52:40;;;;;;;;;;;11.50;73.90;;;;;;4996110;28;19918;-84
2022/05/28 03:55:06;;;;;;;;;;;11.40;74.10;;;;;;4996835;28;19914;-84
2022/05/28 03:57:32;;;;;;;;;;;11.50;73.90;;;;;;5002418;28;19945;-83
2022/05/28 03:59:58;;;;;;;;;;;11.50;74.30;;;;;;4994795;28;19917;-84
2022/05/28 04:02:24;;;;;;;;;;;11.50;74.30;;;;;;5008068;28;20526;-83
2022/05/28 04:04:50;;;;;;;;;;;11.60;74.00;;;;;;4996583;28;19936;-83
2022/05/28 04:07:16;;;;;;;;;;;11.70;73.80;;;;;;4993929;28;20005;-82
2022/05/28 04:09:42;;;;;;;;;;;11.80;73.80;;;;;;4996907;28;19925;-84
2022/05/28 04:12:08;;;;;;;;;;;11.80;73.70;;;;;;4998624;28;19921;-83
2022/05/28 04:14:33;;;;;;;;;;;11.80;73.80;;;;;;4980014;28;19913;-84
2022/05/28 04:16:58;;;;;;;;;;;11.70;74.20;;;;;;4979612;28;19917;-83
2022/05/28 04:19:24;;;;;;;;;;;11.70;74.50;;;;;;4995694;28;19941;-83
2022/05/28 04:21:49;;;;;;;;;;;11.60;74.60;;;;;;5003937;28;19957;-84
2022/05/28 04:24:15;;;;;;;;;;;11.60;74.80;;;;;;4999744;28;20004;-83
2022/05/28 04:26:40;;;;;;;;;;;11.60;75.10;;;;;;4997852;28;19925;-83
2022/05/28 04:29:06;;;;;;;;;;;11.70;75.30;;;;;;4996475;28;19921;-83
2022/05/28 04:31:31;;;;;;;;;;;11.70;75.00;;;;;;4979595;28;19969;-84
2022/05/28 04:33:57;;;;;;;;;;;11.70;75.20;;;;;;5006634;28;19917;-83
2022/05/28 04:36:22;;;;;;;;;;;11.80;75.50;;;;;;5000735;28;20008;-84
2022/05/28 04:38:48;;;;;;;;;;;11.70;75.50;;;;;;4996093;28;19921;-84
2022/05/28 04:41:13;;;;;;;;;;;11.80;75.10;;;;;;4996184;28;19933;-84
2022/05/28 04:43:39;;;;;;;;;;;11.80;75.00;;;;;;4995105;28;20345;-83
2022/05/28 04:46:04;;;;;;;;;;;11.90;75.20;;;;;;4995756;28;20310;-83
2022/05/28 04:48:30;;;;;;;;;;;12.00;75.00;;;;;;4997447;28;19914;-84
2022/05/28 04:50:55;;;;;;;;;;;12.10;74.50;;;;;;4993829;28;20424;-83
2022/05/28 04:53:21;;;;;;;;;;;12.10;74.60;;;;;;4993493;28;19925;-85
2022/05/28 04:55:46;;;;;;;;;;;12.10;74.60;;;;;;4992132;28;19914;-83
2022/05/28 04:58:12;;;;;;;;;;;12.20;74.00;;;;;;4995311;28;19922;-84
2022/05/28 05:00:38;;;;;;;;;;;12.10;74.40;;;;;;4994483;28;19918;-84
2022/05/28 05:03:04;;;;;;;;;;;12.10;74.40;;;;;;4993909;28;19924;-83
2022/05/28 05:05:29;;;;;;;;;;;12.10;74.50;;;;;;4995331;28;19914;-82
2022/05/28 05:07:55;;;;;;;;;;;12.10;74.40;;;;;;4994805;28;19953;-80
2022/05/28 05:10:20;;;;;;;;;;;12.20;74.40;;;;;;4997688;28;19902;-86
2022/05/28 05:12:46;;;;;;;;;;;12.10;74.20;;;;;;4982119;28;19925;-84
2022/05/28 05:15:12;;;;;;;;;;;12.30;74.20;;;;;;4997400;28;19989;-84
2022/05/28 05:17:39;;;;;;;;;;;12.50;73.70;;;;;;4995012;28;19960;-84
2022/05/28 05:20:06;;;;;;;;;;;12.60;73.10;;;;;;4996325;28;19940;-85
2022/05/28 05:22:31;;;;;;;;;;;12.80;72.60;;;;;;4995887;28;20012;-84
2022/05/28 05:24:57;;;;;;;;;;;12.90;72.40;;;;;;5001709;28;19964;-84
2022/05/28 05:27:23;;;;;;;;;;;13.10;71.80;;;;;;4990401;28;19929;-84
2022/05/28 05:29:48;;;;;;;;;;;13.20;70.70;;;;;;5001412;28;19914;-83
2022/05/28 05:32:14;;;;;;;;;;;13.10;71.20;;;;;;4980532;28;20321;-84
2022/05/28 05:34:39;;;;;;;;;;;13.10;70.80;;;;;;4977812;28;20387;-84
2022/05/28 05:37:05;;;;;;;;;;;13.10;70.60;;;;;;4993133;28;20348;-83
2022/05/28 05:39:31;;;;;;;;;;;13.10;70.10;;;;;;4977152;28;19945;-82
2022/05/28 05:41:56;;;;;;;;;;;13.10;70.70;;;;;;4975485;28;19918;-83
2022/05/28 05:44:24;;;;;;;;;;;12.90;70.00;;;;;;4993066;28;22498;-85
2022/05/28 05:46:49;;;;;;;;;;;12.80;70.30;;;;;;4991325;28;20436;-84
2022/05/28 05:49:15;;;;;;;;;;;12.90;69.60;;;;;;4990830;28;20005;-84
2022/05/28 05:51:41;;;;;;;;;;;12.80;70.10;;;;;;4991993;28;20223;-84
2022/05/28 05:54:07;;;;;;;;;;;12.80;70.40;;;;;;4995990;28;19922;-85
2022/05/28 05:56:32;;;;;;;;;;;12.80;70.30;;;;;;4994303;28;19968;-84
2022/05/28 05:58:57;;;;;;;;;;;12.80;69.30;;;;;;4989921;28;20055;-85
2022/05/28 06:01:24;;;;;;;;;;;12.70;69.00;;;;;;4989464;28;19920;-84
2022/05/28 06:03:50;;;;;;;;;;;12.80;69.30;;;;;;4973623;28;19929;-84
2022/05/28 06:06:16;;;;;;;;;;;12.80;68.80;;;;;;4977328;28;19922;-84
2022/05/28 06:08:42;;;;;;;;;;;12.80;69.50;;;;;;4989533;28;19965;-84
2022/05/28 06:11:07;;;;;;;;;;;12.90;69.10;;;;;;4991570;28;19952;-81
2022/05/28 06:13:33;;;;;;;;;;;12.90;68.90;;;;;;4990978;28;19981;-83
2022/05/28 06:15:58;;;;;;;;;;;13.00;68.00;;;;;;5009405;28;19914;-84
2022/05/28 06:18:24;;;;;;;;;;;13.00;65.10;;;;;;4987315;28;20435;-83
2022/05/28 06:20:52;;;;;;;;;;;13.10;65.60;;;;;;4993999;28;19920;-84
2022/05/28 06:23:17;;;;;;;;;;;13.10;64.00;;;;;;4979411;28;19929;-84
2022/05/28 06:25:43;;;;;;;;;;;13.10;64.40;;;;;;4974599;28;20377;-86
2022/05/28 06:28:08;;;;;;;;;;;13.10;65.00;;;;;;4992311;28;19921;-86
2022/05/28 06:30:34;;;;;;;;;;;13.10;65.50;;;;;;4976291;28;20296;-82
2022/05/28 06:32:59;;;;;;;;;;;13.10;64.90;;;;;;4992270;28;20400;-84
2022/05/28 06:35:25;;;;;;;;;;;13.10;64.80;;;;;;4999297;28;21359;-82
2022/05/28 06:37:52;;;;;;;;;;;13.10;64.10;;;;;;4988832;28;19918;-82
2022/05/28 06:40:18;;;;;;;;;;;13.10;63.10;;;;;;4987091;28;19953;-85
2022/05/28 06:42:45;;;;;;;;;;;13.10;63.70;;;;;;4989799;28;20039;-84
2022/05/28 06:45:14;;;;;;;;;;;13.00;63.80;;;;;;4979522;28;19917;-85
2022/05/28 06:47:42;;;;;;;;;;;13.10;63.90;;;;;;4997693;28;19918;-84
2022/05/28 06:52:53;;;;;;;;;;;13.20;63.00;;;;;;4992760;28;19921;-85
2022/05/28 06:55:19;;;;;;;;;;;13.20;62.80;;;;;;4994399;28;19922;-82
2022/05/28 06:57:44;;;;;;;;;;;13.30;62.40;;;;;;4987710;28;19918;-79
2022/05/28 07:00:10;;;;;;;;;;;13.40;61.40;;;;;;4990449;28;19922;-80
2022/05/28 07:02:35;;;;;;;;;;;13.50;60.80;;;;;;4990470;28;19985;-83
2022/05/28 07:05:00;;;;;;;;;;;13.60;61.20;;;;;;4990584;28;19929;-84
2022/05/28 07:07:26;;;;;;;;;;;13.80;60.30;;;;;;4998495;28;19913;-83
2022/05/28 07:09:51;;;;;;;;;;;14.00;59.70;;;;;;5009460;28;19923;-82
2022/05/28 07:12:17;;;;;;;;;;;14.10;60.40;;;;;;5000233;28;19918;-85
2022/05/28 07:14:53;;;;;;;;;;;14.10;57.50;;;;;;4993031;28;19914;-88
2022/05/28 07:17:19;;;;;;;;;;;14.20;57.70;;;;;;4999092;28;19917;-86
2022/05/28 07:19:47;;;;;;;;;;;14.10;57.20;;;;;;5006982;28;19909;-87
2022/05/28 07:22:13;;;;;;;;;;;14.20;57.70;;;;;;4978231;28;20369;-85
2022/05/28 07:24:38;;;;;;;;;;;14.20;58.00;;;;;;4974578;28;19914;-86
2022/05/28 07:27:04;;;;;;;;;;;14.50;57.10;;;;;;4987127;28;20376;-85
2022/05/28 07:29:29;;;;;;;;;;;14.40;56.20;;;;;;4997866;28;19913;-84
2022/05/28 07:31:55;;;;;;;;;;;14.50;57.30;;;;;;4999944;28;19926;-83
2022/05/28 07:34:20;;;;;;;;;;;14.50;55.60;;;;;;4995767;28;19925;-83
2022/05/28 07:36:48;;;;;;;;;;;14.50;55.40;;;;;;4995856;28;19914;-84
2022/05/28 07:39:14;;;;;;;;;;;14.40;54.80;;;;;;4993534;28;19917;-86
2022/05/28 07:41:43;;;;;;;;;;;14.30;54.80;;;;;;4998161;28;19987;-85
2022/05/28 07:44:09;;;;;;;;;;;14.30;55.30;;;;;;4992077;28;20029;-85
2022/05/28 07:46:35;;;;;;;;;;;14.30;54.80;;;;;;4986550;28;19922;-85
2022/05/28 07:49:01;;;;;;;;;;;14.10;54.80;;;;;;4985813;28;19913;-81
2022/05/28 07:51:27;;;;;;;;;;;14.10;54.70;;;;;;4974337;28;19981;-85
2022/05/28 07:53:55;;;;;;;;;;;14.10;54.10;;;;;;4994250;28;19918;-84
2022/05/28 07:56:21;;;;;;;;;;;14.00;54.50;;;;;;4973297;28;19937;-85
2022/05/28 07:58:46;;;;;;;;;;;14.10;54.50;;;;;;4973367;28;20012;-85
2022/05/28 08:01:22;;;;;;;;;;;14.10;54.80;;;;;;4971175;28;19914;-85
2022/05/28 08:03:48;;;;;;;;;;;14.30;54.70;;;;;;4980326;28;20308;-85
2022/05/28 08:06:14;;;;;;;;;;;14.50;54.10;;;;;;4991463;28;19919;-85
2022/05/28 08:08:42;;;;;;;;;;;14.70;53.30;;;;;;4990452;28;20414;-88
2022/05/28 08:11:09;;;;;;;;;;;15.00;51.60;;;;;;4979852;28;19914;-86
2022/05/28 08:13:35;;;;;;;;;;;15.00;53.30;;;;;;4982787;28;19914;-85
2022/05/28 08:16:01;;;;;;;;;;;14.80;52.90;;;;;;5009549;28;19917;-84
2022/05/28 08:18:26;;;;;;;;;;;14.80;54.10;;;;;;5013719;28;19964;-83
2022/05/28 08:23:38;;;;;;;;;;;14.60;54.40;;;;;;4992179;28;19925;-83
2022/05/28 08:26:04;;;;;;;;;;;14.60;55.20;;;;;;4991439;28;20009;-85
2022/05/28 08:28:29;;;;;;;;;;;14.50;55.00;;;;;;4995821;28;19976;-85
2022/05/28 08:30:55;;;;;;;;;;;14.50;55.60;;;;;;4993920;28;19916;-83
2022/05/28 08:33:22;;;;;;;;;;;14.50;55.80;;;;;;4994468;28;20433;-84
2022/05/28 08:35:50;;;;;;;;;;;14.50;52.20;;;;;;4993405;28;19956;-83
2022/05/28 08:38:17;;;;;;;;;;;14.50;52.10;;;;;;4977188;28;20377;-83
2022/05/28 08:40:43;;;;;;;;;;;14.60;50.30;;;;;;4976087;28;19922;-85
2022/05/28 08:43:08;;;;;;;;;;;14.90;50.30;;;;;;4999292;28;20348;-84
2022/05/28 08:45:35;;;;;;;;;;;15.10;49.50;;;;;;4996349;28;19920;-84
2022/05/28 08:48:00;;;;;;;;;;;15.10;50.30;;;;;;4995327;28;19913;-83
2022/05/28 08:50:27;;;;;;;;;;;15.10;50.50;;;;;;4993288;28;19914;-84
2022/05/28 08:53:09;;;;;;;;;;;15.10;51.40;;;;;;5013684;28;19913;-84
2022/05/28 08:55:39;;;;;;;;;;;15.30;50.40;;;;;;4997511;28;19985;-84
2022/05/28 08:58:07;;;;;;;;;;;15.10;50.70;;;;;;4977804;28;19917;-86
2022/05/28 09:01:11;;;;;;;;;;;15.00;52.00;;;;;;4976511;28;19940;-84
2022/05/28 09:03:46;;;;;;;;;;;15.00;52.20;;;;;;4899280;29;19915;-83
2022/05/28 09:06:17;;;;;;;;;;;14.90;53.00;;;;;;4961987;28;20004;-86
2022/05/28 09:08:48;;;;;;;;;;;14.60;53.40;;;;;;4973742;28;19961;-85
2022/05/28 09:11:21;;;;;;;;;;;14.40;55.10;;;;;;4957035;28;19916;-85
2022/05/28 09:13:48;;;;;;;;;;;14.40;54.20;;;;;;4957154;28;19911;-85
2022/05/28 09:16:22;;;;;;;;;;;14.50;51.80;;;;;;4974317;28;19973;-85
2022/05/28 09:18:49;;;;;;;;;;;14.60;53.20;;;;;;4956895;28;19910;-84
2022/05/28 09:21:21;;;;;;;;;;;14.60;53.10;;;;;;4956672;28;19914;-84
2022/05/28 09:24:08;;;;;;;;;;;14.60;52.00;;;;;;5010004;28;19922;-86
2022/05/28 09:26:49;;;;;;;;;;;15.00;50.80;;;;;;5012742;28;19965;-85
2022/05/28 09:29:33;;;;;;;;;;;15.30;50.60;;;;;;4975632;28;19913;-84
2022/05/28 09:32:11;;;;;;;;;;;15.60;48.90;;;;;;4992127;28;19937;-83
2022/05/28 09:34:44;;;;;;;;;;;16.00;50.50;;;;;;4977056;28;20354;-84
2022/05/28 09:37:13;;;;;;;;;;;16.10;46.60;;;;;;4974441;28;19916;-85
2022/05/28 09:39:44;;;;;;;;;;;15.70;47.50;;;;;;4978059;28;19957;-84
2022/05/28 09:42:19;;;;;;;;;;;15.50;49.80;;;;;;4996574;28;19918;-84
2022/05/28 09:44:44;;;;;;;;;;;15.30;50.40;;;;;;5009126;28;19913;-84
2022/05/28 09:47:11;;;;;;;;;;;15.30;50.70;;;;;;5017092;28;19902;-85
2022/05/28 09:49:51;;;;;;;;;;;15.30;51.20;;;;;;4978486;28;19925;-84
2022/05/28 09:52:27;;;;;;;;;;;15.20;51.70;;;;;;4998548;28;19925;-84
2022/05/28 09:55:10;;;;;;;;;;;15.10;53.40;;;;;;4992280;28;19963;-85
2022/05/28 10:01:05;;;;;;;;;;;15.20;51.80;;;;;;4996499;28;19945;-84
2022/05/28 10:06:19;;;;;;;;;;;15.50;50.40;;;;;;5002080;28;19921;-82
2022/05/28 10:08:44;;;;;;;;;;;15.70;50.10;;;;;;4983449;28;19914;-84
2022/05/28 10:11:40;;;;;;;;;;;15.90;50.10;;;;;;4995894;28;19922;-84
2022/05/28 10:14:23;;;;;;;;;;;16.10;48.30;;;;;;4992238;28;19910;-84
2022/05/28 10:17:41;;;;;;;;;;;16.50;47.80;;;;;;4986161;28;20383;-83
2022/05/28 10:20:19;;;;;;;;;;;16.60;46.50;;;;;;4976954;28;19917;-83
2022/05/28 10:22:50;;;;;;;;;;;16.30;45.90;;;;;;4982953;28;19971;-83
2022/05/28 10:25:34;;;;;;;;;;;16.10;48.30;;;;;;4974366;28;20120;-84
2022/05/28 10:28:00;;;;;;;;;;;16.00;49.20;;;;;;4994009;28;19917;-84
2022/05/28 10:30:30;;;;;;;;;;;15.80;50.70;;;;;;4974562;28;20297;-85
2022/05/28 10:32:56;;;;;;;;;;;15.70;50.70;;;;;;4992956;28;19909;-84
2022/05/28 10:35:26;;;;;;;;;;;15.70;50.00;;;;;;4974601;28;19942;-84
2022/05/28 10:37:53;;;;;;;;;;;15.70;50.60;;;;;;4992406;28;19922;-83
2022/05/28 10:40:21;;;;;;;;;;;15.70;50.90;;;;;;4989575;28;20361;-85
2022/05/28 10:42:47;;;;;;;;;;;15.60;51.80;;;;;;4974882;28;19959;-84
2022/05/28 10:45:15;;;;;;;;;;;15.50;52.20;;;;;;4974266;28;19914;-84
2022/05/28 10:48:04;;;;;;;;;;;15.80;50.70;;;;;;4974570;28;19910;-84
2022/05/28 10:50:52;;;;;;;;;;;15.80;47.90;;;;;;4990332;28;19910;-84
2022/05/28 10:53:18;;;;;;;;;;;15.80;48.20;;;;;;4982068;28;19940;-83
2022/05/28 10:55:49;;;;;;;;;;;16.00;48.40;;;;;;4990339;28;19909;-84
2022/05/28 10:58:27;;;;;;;;;;;16.20;47.80;;;;;;4990596;28;19909;-84
2022/05/28 11:01:02;;;;;;;;;;;16.30;45.70;;;;;;4972679;28;19917;-83
2022/05/28 11:03:41;;;;;;;;;;;16.20;46.10;;;;;;4993900;28;20021;-84
2022/05/28 11:06:31;;;;;;;;;;;16.20;48.50;;;;;;4997753;28;19910;-84
2022/05/28 11:09:15;;;;;;;;;;;16.00;51.70;;;;;;4991344;28;19941;-86
2022/05/28 11:11:43;;;;;;;;;;;15.80;52.20;;;;;;4992945;28;19980;-83
2022/05/28 11:14:28;;;;;;;;;;;15.80;54.10;;;;;;4997191;28;19917;-83
2022/05/28 11:17:03;;;;;;;;;;;15.80;53.90;;;;;;4993737;28;19960;-84
2022/05/28 11:19:40;;;;;;;;;;;16.10;53.30;;;;;;5007838;28;19977;-85
2022/05/28 11:22:20;;;;;;;;;;;16.40;50.60;;;;;;5014617;28;19921;-85
2022/05/28 11:24:53;;;;;;;;;;;16.50;49.40;;;;;;4992427;28;20017;-84
2022/05/28 11:27:37;;;;;;;;;;;16.50;49.90;;;;;;4974867;28;19961;-86
2022/05/28 11:30:21;;;;;;;;;;;16.70;49.30;;;;;;4989827;28;19913;-84
2022/05/28 11:32:47;;;;;;;;;;;16.80;50.00;;;;;;4975061;28;20004;-86
2022/05/28 11:35:32;;;;;;;;;;;16.80;50.00;;;;;;4992441;28;20019;-84
2022/05/28 11:38:00;;;;;;;;;;;16.90;49.10;;;;;;5001331;28;19953;-85
2022/05/28 11:40:33;;;;;;;;;;;16.80;48.10;;;;;;4995967;28;19921;-84
2022/05/28 11:43:12;;;;;;;;;;;16.60;48.10;;;;;;4985122;28;20013;-83
2022/05/28 11:45:59;;;;;;;;;;;16.50;47.90;;;;;;4973203;28;19920;-84
2022/05/28 11:51:28;;;;;;;;;;;16.50;49.40;;;;;;4980624;28;21006;-84
2022/05/28 11:54:00;;;;;;;;;;;16.60;46.20;;;;;;4976309;28;19914;-86
2022/05/28 11:56:28;;;;;;;;;;;16.60;46.00;;;;;;4976461;28;19914;-84
2022/05/28 11:59:03;;;;;;;;;;;16.40;44.50;;;;;;4991477;28;19910;-83
2022/05/28 12:01:31;;;;;;;;;;;16.40;45.50;;;;;;4981770;28;19996;-84
2022/05/28 12:03:58;;;;;;;;;;;16.50;45.30;;;;;;4977779;28;20363;-84
2022/05/28 12:06:37;;;;;;;;;;;16.50;45.80;;;;;;4976531;28;19916;-84
2022/05/28 12:09:20;;;;;;;;;;;16.60;46.50;;;;;;4975790;28;19936;-84
2022/05/28 12:11:48;;;;;;;;;;;17.00;45.80;;;;;;5000742;28;19910;-85
2022/05/28 12:14:22;;;;;;;;;;;16.90;45.60;;;;;;5008731;28;19910;-84
2022/05/28 12:16:58;;;;;;;;;;;16.60;47.40;;;;;;4988918;28;19941;-84
2022/05/28 12:19:24;;;;;;;;;;;16.50;48.60;;;;;;4997169;28;19937;-84
2022/05/28 12:21:50;;;;;;;;;;;16.50;47.90;;;;;;4995547;28;19910;-84
2022/05/28 12:24:18;;;;;;;;;;;16.70;47.50;;;;;;5001293;28;19917;-84
2022/05/28 12:36:19;;;;;;;;;;;17.20;43.10;;;;;;4886562;29;19915;-85
2022/05/28 12:41:17;;;;;;;;;;;16.90;42.90;;;;;;5019611;23;19937;-77
2022/05/28 12:43:44;;;;;;;;;;;17.00;43.50;;;;;;5028646;28;19927;-78
2022/05/28 12:46:15;;;;;;;;;;;16.90;45.20;;;;;;5012129;28;19909;-77
2022/05/28 12:48:41;;;;;;;;;;;17.00;44.70;;;;;;5012443;28;19914;-77
2022/05/28 12:51:12;;;;;;;;;;;17.10;44.80;;;;;;5027450;28;20012;-77
2022/05/28 12:53:54;;;;;;;;;;;17.20;41.50;;;;;;5012168;28;20323;-78
2022/05/28 12:56:23;;;;;;;;;;;17.30;39.40;;;;;;5012261;28;20544;-78
2022/05/28 12:58:48;;;;;;;;;;;17.30;38.70;;;;;;5010872;28;20627;-76
2022/05/28 13:01:26;;;;;;;;;;;17.50;38.40;;;;;;5011684;28;19910;-76
2022/05/28 13:03:52;;;;;;;;;;;17.70;36.80;;;;;;5007256;28;19921;-77
2022/05/28 13:06:43;;;;;;;;;;;17.80;37.00;;;;;;4994573;28;19964;-78
2022/05/28 13:09:11;;;;;;;;;;;17.50;37.90;;;;;;5005768;28;19940;-77
2022/05/28 13:11:40;;;;;;;;;;;17.50;37.50;;;;;;4990565;28;19930;-77
2022/05/28 13:14:25;;;;;;;;;;;17.50;38.10;;;;;;4983091;28;19914;-76
2022/05/28 13:17:09;;;;;;;;;;;17.50;38.60;;;;;;4991174;28;20017;-77
2022/05/28 13:19:46;;;;;;;;;;;17.40;37.60;;;;;;4991104;28;19910;-77
2022/05/28 13:22:20;;;;;;;;;;;17.20;38.70;;;;;;5007365;28;19975;-77
2022/05/28 13:24:46;;;;;;;;;;;17.10;40.40;;;;;;4992825;28;20282;-78
2022/05/28 13:27:17;;;;;;;;;;;17.10;40.40;;;;;;4992768;28;20014;-77
2022/05/28 13:29:49;;;;;;;;;;;17.20;40.60;;;;;;5023208;28;19910;-77
2022/05/28 13:32:17;;;;;;;;;;;17.20;40.40;;;;;;5007415;28;19918;-77
2022/05/28 13:34:42;;;;;;;;;;;17.20;40.80;;;;;;4990903;28;19913;-76
2022/05/28 13:37:15;;;;;;;;;;;17.30;41.30;;;;;;4989724;28;19929;-77
2022/05/28 13:39:46;;;;;;;;;;;17.30;39.60;;;;;;4993538;28;19914;-77
2022/05/28 13:42:12;;;;;;;;;;;17.30;40.00;;;;;;5002057;28;20004;-77
2022/05/28 13:44:41;;;;;;;;;;;17.40;39.00;;;;;;4990946;28;20048;-76
2022/05/28 13:47:07;;;;;;;;;;;17.50;37.50;;;;;;5022862;28;19910;-77
2022/05/28 13:49:33;;;;;;;;;;;17.50;37.90;;;;;;5024090;28;19978;-77
2022/05/28 13:52:00;;;;;;;;;;;17.50;38.50;;;;;;4999367;28;19953;-78
2022/05/28 13:54:26;;;;;;;;;;;17.60;38.80;;;;;;5008231;28;19936;-79
2022/05/28 13:56:57;;;;;;;;;;;18.10;38.30;;;;;;4992156;28;19918;-77
2022/05/28 13:59:40;;;;;;;;;;;18.30;37.70;;;;;;4993989;28;19918;-77
2022/05/28 14:02:14;;;;;;;;;;;18.60;37.80;;;;;;4980815;28;19910;-77
2022/05/28 14:04:46;;;;;;;;;;;18.70;37.80;;;;;;5022887;28;19949;-77
2022/05/28 14:07:23;;;;;;;;;;;18.70;38.10;;;;;;4990163;28;19921;-77
2022/05/28 14:09:49;;;;;;;;;;;18.60;37.00;;;;;;4990324;28;19916;-77
2022/05/28 14:12:14;;;;;;;;;;;18.30;36.40;;;;;;5022020;28;19909;-78
2022/05/28 14:14:41;;;;;;;;;;;18.10;35.30;;;;;;5023053;28;20009;-77
2022/05/28 14:17:09;;;;;;;;;;;18.10;35.20;;;;;;4989229;28;19960;-77
2022/05/28 14:19:39;;;;;;;;;;;18.40;36.10;;;;;;5006594;28;20012;-78
2022/05/28 14:22:05;;;;;;;;;;;18.60;35.70;;;;;;4991499;28;19918;-77
2022/05/28 14:24:33;;;;;;;;;;;18.60;36.20;;;;;;5006035;28;19992;-78
2022/05/28 14:27:05;;;;;;;;;;;18.50;37.70;;;;;;5006594;28;19914;-78
2022/05/28 14:29:33;;;;;;;;;;;18.20;38.00;;;;;;4990842;28;19910;-77
2022/05/28 14:32:00;;;;;;;;;;;18.10;37.80;;;;;;4991041;28;19968;-77
2022/05/28 14:34:27;;;;;;;;;;;17.70;38.90;;;;;;4990761;28;20368;-75
2022/05/28 14:36:54;;;;;;;;;;;17.50;40.10;;;;;;5006613;28;20298;-76
2022/05/28 14:39:20;;;;;;;;;;;17.30;40.50;;;;;;5004554;28;19918;-76
2022/05/28 14:41:50;;;;;;;;;;;17.10;40.00;;;;;;5005760;28;19914;-77
2022/05/28 14:44:18;;;;;;;;;;;17.00;38.90;;;;;;4986282;28;19949;-77
2022/05/28 14:46:46;;;;;;;;;;;17.00;39.10;;;;;;4969650;28;19933;-76
2022/05/28 14:49:17;;;;;;;;;;;17.10;39.90;;;;;;4969794;28;20007;-75
2022/05/28 14:51:42;;;;;;;;;;;17.20;39.30;;;;;;5004317;28;19920;-76
2022/05/28 14:54:40;;;;;;;;;;;17.30;37.60;;;;;;5016028;28;20283;-77